createdAt,value
2022-10-20T00:00:56.304Z,8.85
2022-10-20T00:03:59.300Z,8.89
2022-10-20T00:07:01.864Z,8.92
2022-10-20T00:10:05.274Z,8.96
2022-10-20T00:13:07.993Z,8.92
2022-10-20T00:16:11.199Z,8.91
2022-10-20T00:19:13.848Z,8.89
2022-10-20T00:22:16.876Z,8.90
2022-10-20T00:25:19.293Z,8.91
2022-10-20T00:28:22.036Z,8.91
2022-10-20T00:31:25.719Z,8.91
2022-10-20T00:34:28.559Z,8.95
2022-10-20T00:37:31.165Z,8.95
2022-10-20T00:40:35.094Z,8.99
2022-10-20T00:43:49.472Z,9.02
2022-10-20T00:46:52.701Z,8.97
2022-10-20T00:49:55.994Z,8.97
2022-10-20T00:52:59.784Z,8.96
2022-10-20T00:56:02.622Z,9.04
2022-10-20T00:59:05.594Z,9.02
2022-10-20T01:02:09.077Z,9.10
2022-10-20T01:05:13.229Z,9.03
2022-10-20T01:08:15.829Z,9.01
2022-10-20T01:11:21.730Z,9.03
2022-10-20T01:14:39.004Z,9.12
2022-10-20T01:17:57.423Z,9.05
2022-10-20T01:21:08.101Z,9.08
2022-10-20T01:24:17.027Z,8.95
2022-10-20T01:27:34.661Z,8.86
2022-10-20T01:30:46.046Z,8.81
2022-10-20T01:34:10.418Z,8.79
2022-10-20T01:37:49.077Z,8.79
2022-10-20T01:41:02.882Z,8.70
2022-10-20T01:44:09.409Z,8.71
2022-10-20T01:47:12.248Z,8.79
2022-10-20T01:50:17.075Z,8.94
2022-10-20T01:53:20.303Z,9.08
2022-10-20T01:56:47.270Z,9.21
2022-10-20T02:00:00.725Z,9.34
2022-10-20T02:03:04.557Z,9.41
2022-10-20T02:06:19.539Z,9.47
2022-10-20T02:09:48.048Z,9.44
2022-10-20T02:12:55.473Z,9.39
2022-10-20T02:16:00.885Z,9.30
2022-10-20T02:19:06.002Z,9.22
2022-10-20T02:22:11.218Z,9.04
2022-10-20T02:25:14.314Z,8.89
2022-10-20T02:28:17.711Z,8.81
2022-10-20T02:31:20.983Z,8.76
2022-10-20T02:34:26.271Z,8.75
2022-10-20T02:37:29.163Z,8.69
2022-10-20T02:40:33.354Z,8.59
2022-10-20T02:43:36.427Z,8.60
2022-10-20T02:46:38.963Z,8.49
2022-10-20T02:49:41.856Z,8.53
2022-10-20T02:52:44.486Z,8.46
2022-10-20T02:55:47.484Z,8.40
2022-10-20T02:58:50.369Z,8.27
2022-10-20T03:01:53.439Z,8.16
2022-10-20T03:04:56.003Z,8.09
2022-10-20T03:07:58.824Z,8.15
2022-10-20T03:11:02.981Z,7.76
2022-10-20T03:14:05.843Z,8.17
2022-10-20T03:17:08.865Z,8.08
2022-10-20T03:20:12.110Z,8.01
2022-10-20T03:23:17.816Z,7.99
2022-10-20T03:26:22.909Z,7.95
2022-10-20T03:29:25.365Z,7.92
2022-10-20T03:32:28.274Z,7.92
2022-10-20T03:35:30.816Z,7.96
2022-10-20T03:38:33.729Z,8.03
2022-10-20T03:41:37.373Z,8.06
2022-10-20T03:44:40.595Z,8.17
2022-10-20T03:47:43.042Z,8.18
2022-10-20T03:50:49.243Z,8.12
2022-10-20T03:53:51.718Z,8.11
2022-10-20T03:56:54.520Z,8.24
2022-10-20T03:59:59.351Z,8.28
2022-10-20T04:03:02.229Z,8.34
2022-10-20T04:06:05.224Z,8.30
2022-10-20T04:09:07.911Z,8.40
2022-10-20T04:12:10.784Z,8.38
2022-10-20T04:15:13.717Z,8.39
2022-10-20T04:18:16.615Z,8.38
2022-10-20T04:21:19.294Z,8.37
2022-10-20T04:24:22.156Z,8.32
2022-10-20T04:27:24.801Z,8.34
2022-10-20T04:30:33.355Z,8.39
2022-10-20T04:33:36.137Z,8.33
2022-10-20T04:36:38.921Z,8.38
2022-10-20T04:39:41.472Z,8.34
2022-10-20T04:42:44.370Z,8.36
2022-10-20T04:45:46.875Z,8.37
2022-10-20T04:48:49.655Z,8.41
2022-10-20T04:51:52.225Z,8.45
2022-10-20T04:54:55.031Z,8.33
2022-10-20T04:57:57.678Z,8.43
2022-10-20T05:01:03.518Z,8.37
2022-10-20T05:04:06.138Z,8.31
2022-10-20T05:07:08.988Z,8.53
2022-10-20T05:10:11.934Z,8.96
2022-10-20T05:13:14.716Z,9.43
2022-10-20T05:16:17.723Z,8.93
2022-10-20T05:19:20.626Z,8.63
2022-10-20T05:22:23.155Z,8.55
2022-10-20T05:25:36.200Z,8.40
2022-10-20T05:28:40.397Z,8.38
2022-10-20T05:31:44.063Z,8.35
2022-10-20T05:34:46.758Z,8.29
2022-10-20T05:37:49.611Z,8.38
2022-10-20T05:41:16.997Z,8.38
2022-10-20T05:44:19.848Z,8.44
2022-10-20T05:47:22.472Z,8.21
2022-10-20T05:50:25.732Z,8.21
2022-10-20T05:53:28.311Z,8.21
2022-10-20T05:56:31.891Z,8.14
2022-10-20T05:59:34.500Z,8.12
2022-10-20T06:02:38.022Z,8.24
2022-10-20T06:05:41.220Z,8.31
2022-10-20T06:08:43.869Z,8.34
2022-10-20T06:11:48.172Z,8.40
2022-10-20T06:14:50.700Z,8.43
2022-10-20T06:17:53.612Z,8.42
2022-10-20T06:21:05.753Z,8.46
2022-10-20T06:24:10.024Z,8.49
2022-10-20T06:27:12.628Z,8.62
2022-10-20T06:30:15.803Z,8.64
2022-10-20T06:33:18.352Z,8.75
2022-10-20T06:36:22.472Z,8.84
2022-10-20T06:39:25.511Z,9.01
2022-10-20T06:42:28.741Z,9.03
2022-10-20T06:45:31.274Z,9.17
2022-10-20T06:48:35.170Z,9.34
2022-10-20T06:51:40.824Z,9.46
2022-10-20T06:54:43.820Z,9.53
2022-10-20T06:57:46.349Z,9.53
2022-10-20T07:00:58.641Z,9.61
2022-10-20T07:04:04.027Z,9.64
2022-10-20T07:07:06.914Z,9.71
2022-10-20T07:10:09.641Z,9.93
2022-10-20T07:13:12.611Z,9.96
2022-10-20T07:16:17.906Z,10.16
2022-10-20T07:19:21.187Z,10.21
2022-10-20T07:22:23.791Z,10.36
2022-10-20T07:25:26.659Z,10.56
2022-10-20T07:28:29.712Z,10.72
2022-10-20T07:31:36.319Z,10.72
2022-10-20T07:34:38.825Z,10.82
2022-10-20T07:37:41.757Z,11.10
2022-10-20T07:40:44.422Z,11.21
2022-10-20T07:43:47.419Z,11.15
2022-10-20T07:46:50.273Z,11.51
2022-10-20T07:49:53.266Z,11.57
2022-10-20T07:52:55.832Z,11.86
2022-10-20T07:55:58.701Z,11.82
2022-10-20T07:59:01.664Z,11.87
2022-10-20T08:02:04.856Z,12.13
2022-10-20T08:05:08.888Z,12.29
2022-10-20T08:08:11.719Z,12.28
2022-10-20T08:11:15.540Z,12.35
2022-10-20T08:14:18.269Z,12.43
2022-10-20T08:17:21.103Z,12.70
2022-10-20T08:20:28.738Z,12.84
2022-10-20T08:23:31.714Z,12.90
2022-10-20T08:26:34.852Z,13.01
2022-10-20T08:29:38.101Z,13.09
2022-10-20T08:32:40.763Z,12.98
2022-10-20T08:35:43.687Z,13.36
2022-10-20T08:38:46.286Z,13.53
2022-10-20T08:45:18.838Z,13.83
2022-10-20T08:48:25.042Z,13.92
2022-10-20T08:51:32.619Z,14.21
2022-10-20T08:54:35.587Z,14.12
2022-10-20T08:57:38.561Z,14.58
2022-10-20T09:00:43.996Z,14.56
2022-10-20T09:03:51.418Z,14.82
2022-10-20T09:06:59.495Z,14.84
2022-10-20T09:10:26.877Z,15.33
2022-10-20T09:13:31.849Z,15.57
2022-10-20T09:16:58.557Z,15.54
2022-10-20T09:20:01.993Z,15.80
2022-10-20T09:23:16.679Z,15.21
2022-10-20T09:26:54.120Z,15.59
2022-10-20T09:29:57.521Z,16.07
2022-10-20T09:33:02.214Z,16.04
2022-10-20T09:36:12.902Z,16.13
2022-10-20T09:39:24.904Z,16.44
2022-10-20T09:42:34.430Z,16.39
2022-10-20T09:45:39.756Z,16.82
2022-10-20T09:48:47.915Z,17.49
2022-10-20T09:55:03.949Z,17.93
2022-10-20T09:58:08.108Z,18.19
2022-10-20T10:01:15.858Z,17.89
2022-10-20T10:04:31.032Z,17.14
2022-10-20T10:07:33.578Z,18.04
2022-10-20T10:10:37.906Z,18.29
2022-10-20T10:13:44.529Z,17.22
2022-10-20T10:16:47.385Z,17.89
2022-10-20T10:19:52.556Z,17.94
2022-10-20T10:23:27.285Z,17.12
2022-10-20T10:26:45.554Z,16.69
2022-10-20T10:29:50.921Z,17.57
2022-10-20T10:32:53.792Z,18.49
2022-10-20T10:35:57.403Z,19.15
2022-10-20T10:39:00.419Z,19.52
2022-10-20T10:42:03.429Z,19.13
2022-10-20T10:45:23.682Z,19.66
2022-10-20T10:48:47.930Z,19.86
2022-10-20T10:51:57.523Z,18.85
2022-10-20T10:55:06.612Z,18.08
2022-10-20T10:58:16.049Z,18.87
2022-10-20T11:01:45.120Z,18.95
2022-10-20T11:05:13.975Z,17.85
2022-10-20T11:08:28.879Z,18.69
2022-10-20T11:11:50.471Z,18.75
2022-10-20T11:15:14.346Z,17.70
2022-10-20T11:18:46.223Z,17.18
2022-10-20T11:22:02.018Z,16.96
2022-10-20T11:25:22.693Z,16.48
2022-10-20T11:28:46.776Z,16.37
2022-10-20T11:32:15.880Z,16.55
2022-10-20T11:35:25.034Z,16.92
2022-10-20T11:38:36.236Z,18.40
2022-10-20T11:41:49.749Z,19.57
2022-10-20T11:44:54.394Z,20.00
2022-10-20T11:48:12.573Z,19.55
2022-10-20T11:51:19.747Z,19.97
2022-10-20T11:54:48.884Z,20.87
2022-10-20T11:58:12.814Z,20.23
2022-10-20T12:01:18.888Z,18.86
2022-10-20T12:04:40.903Z,18.93
2022-10-20T12:08:30.288Z,18.49
2022-10-20T12:11:51.888Z,17.70
2022-10-20T12:15:00.349Z,17.58
2022-10-20T12:18:34.726Z,17.09
2022-10-20T12:21:57.885Z,16.55
2022-10-20T12:25:00.626Z,15.82
2022-10-20T12:28:22.584Z,15.66
2022-10-20T12:31:26.120Z,15.50
2022-10-20T12:34:40.132Z,15.39
2022-10-20T12:37:44.975Z,16.26
2022-10-20T12:40:59.116Z,15.98
2022-10-20T12:44:04.672Z,15.62
2022-10-20T12:47:08.335Z,15.54
2022-10-20T12:50:35.177Z,15.35
2022-10-20T12:53:38.267Z,15.33
2022-10-20T12:56:42.109Z,15.32
2022-10-20T12:59:44.820Z,15.44
2022-10-20T13:02:58.809Z,15.86
2022-10-20T13:06:02.113Z,15.84
2022-10-20T13:09:07.709Z,15.97
2022-10-20T13:12:29.033Z,16.07
2022-10-20T13:15:35.161Z,16.07
2022-10-20T13:18:42.763Z,16.01
2022-10-20T13:21:49.427Z,15.93
2022-10-20T13:24:55.959Z,15.91
2022-10-20T13:28:18.258Z,15.98
2022-10-20T13:31:21.056Z,16.09
2022-10-20T13:34:33.942Z,16.06
2022-10-20T13:38:02.967Z,16.17
2022-10-20T13:41:40.904Z,15.98
2022-10-20T13:44:52.920Z,15.64
2022-10-20T13:48:16.831Z,15.67
2022-10-20T13:51:24.743Z,15.51
2022-10-20T13:54:31.827Z,15.39
2022-10-20T13:57:35.653Z,15.28
2022-10-20T14:00:39.695Z,15.28
2022-10-20T14:03:44.591Z,15.41
2022-10-20T14:06:47.269Z,15.36
2022-10-20T14:09:57.257Z,15.33
2022-10-20T14:13:01.188Z,15.23
2022-10-20T14:16:05.939Z,15.12
2022-10-20T14:19:12.855Z,14.96
2022-10-20T14:22:15.562Z,14.93
2022-10-20T14:25:18.204Z,14.90
2022-10-20T14:28:21.312Z,15.18
2022-10-20T14:31:24.966Z,14.97
2022-10-20T14:34:29.451Z,14.86
2022-10-20T14:37:41.092Z,14.58
2022-10-20T14:40:55.566Z,14.50
2022-10-20T14:44:05.098Z,14.46
2022-10-20T14:47:10.906Z,14.42
2022-10-20T14:50:44.389Z,14.30
2022-10-20T14:53:47.385Z,14.29
2022-10-20T14:56:52.360Z,14.29
2022-10-20T15:00:03.932Z,14.67
2022-10-20T15:03:09.192Z,14.40
2022-10-20T15:06:17.671Z,14.28
2022-10-20T15:09:30.489Z,14.06
2022-10-20T15:12:39.392Z,14.01
2022-10-20T15:15:42.327Z,13.84
2022-10-20T15:18:46.474Z,14.01
2022-10-20T15:21:50.544Z,13.61
2022-10-20T15:24:53.490Z,13.37
2022-10-20T15:27:56.525Z,13.09
2022-10-20T15:31:04.315Z,12.93
2022-10-20T15:34:09.871Z,12.61
2022-10-20T15:37:12.783Z,12.40
2022-10-20T15:40:21.051Z,12.30
2022-10-20T15:43:24.024Z,12.18
2022-10-20T15:46:26.744Z,12.06
2022-10-20T15:49:29.601Z,11.90
2022-10-20T15:52:32.470Z,11.78
2022-10-20T15:55:37.491Z,11.70
2022-10-20T15:58:40.144Z,11.60
2022-10-20T16:01:43.058Z,11.52
2022-10-20T16:04:45.964Z,11.50
2022-10-20T16:07:48.521Z,11.49
2022-10-20T16:10:57.827Z,11.53
2022-10-20T16:14:20.204Z,11.56
2022-10-20T16:17:42.936Z,11.60
2022-10-20T16:21:06.312Z,11.61
2022-10-20T16:24:28.997Z,11.56
2022-10-20T16:27:51.354Z,11.52
2022-10-20T16:31:16.083Z,11.34
2022-10-20T16:34:18.597Z,11.36
2022-10-20T16:37:21.930Z,11.34
2022-10-20T16:40:24.548Z,11.28
2022-10-20T16:43:28.048Z,11.23
2022-10-20T16:46:30.628Z,11.17
2022-10-20T16:49:34.327Z,11.15
2022-10-20T16:52:37.117Z,11.92
2022-10-20T16:55:40.088Z,11.38
2022-10-20T16:58:42.653Z,11.05
2022-10-20T17:01:45.851Z,11.95
2022-10-20T17:04:49.779Z,11.23
2022-10-20T17:07:52.668Z,10.93
2022-10-20T17:10:57.376Z,10.67
2022-10-20T17:14:00.591Z,10.34
2022-10-20T17:17:03.380Z,10.25
2022-10-20T17:20:06.965Z,10.13
2022-10-20T17:23:09.626Z,10.17
2022-10-20T17:26:18.424Z,10.26
2022-10-20T17:29:25.151Z,10.43
2022-10-20T17:32:29.007Z,10.51
2022-10-20T17:35:31.938Z,10.59
2022-10-20T17:38:35.514Z,10.61
2022-10-20T17:41:38.349Z,10.54
2022-10-20T17:44:41.342Z,10.63
2022-10-20T17:47:44.148Z,10.59
2022-10-20T17:50:47.346Z,10.67
2022-10-20T17:53:51.729Z,10.65
2022-10-20T17:56:54.911Z,10.59
2022-10-20T18:00:00.448Z,10.58
2022-10-20T18:03:08.412Z,10.59
2022-10-20T18:06:17.448Z,10.60
2022-10-20T18:09:20.290Z,10.64
2022-10-20T18:12:23.309Z,10.66
2022-10-20T18:15:26.154Z,10.63
2022-10-20T18:18:29.176Z,11.47
2022-10-20T18:21:32.739Z,11.47
2022-10-20T18:24:37.208Z,12.03
2022-10-20T18:27:40.048Z,11.51
2022-10-20T18:30:43.609Z,11.24
2022-10-20T18:33:47.256Z,10.93
2022-10-20T18:36:51.289Z,10.76
2022-10-20T18:39:54.052Z,10.64
2022-10-20T18:42:56.902Z,10.52
2022-10-20T18:46:01.203Z,10.47
2022-10-20T18:49:06.741Z,10.40
2022-10-20T18:52:09.576Z,10.36
2022-10-20T18:55:12.874Z,10.35
2022-10-20T18:58:15.797Z,10.38
2022-10-20T19:01:21.269Z,10.37
2022-10-20T19:04:24.216Z,10.37
2022-10-20T19:07:27.070Z,10.40
2022-10-20T19:10:29.960Z,10.32
2022-10-20T19:13:35.954Z,10.25
2022-10-20T19:16:39.935Z,10.22
2022-10-20T19:19:44.645Z,10.31
2022-10-20T19:22:47.448Z,10.26
2022-10-20T19:26:13.629Z,10.22
2022-10-20T19:29:18.214Z,10.18
2022-10-20T19:32:22.689Z,10.08
2022-10-20T19:35:25.752Z,10.05
2022-10-20T19:38:28.963Z,9.99
2022-10-20T19:41:34.502Z,9.89
2022-10-20T19:44:37.530Z,9.83
2022-10-20T19:47:40.485Z,9.81
2022-10-20T19:50:43.550Z,9.78
2022-10-20T19:53:47.704Z,9.62
2022-10-20T19:56:50.973Z,9.66
2022-10-20T19:59:54.890Z,9.69
2022-10-20T20:02:57.851Z,9.54
2022-10-20T20:06:03.243Z,9.54
2022-10-20T20:09:08.217Z,9.56
2022-10-20T20:12:11.239Z,9.53
2022-10-20T20:15:14.097Z,9.56
2022-10-20T20:18:17.680Z,9.45
2022-10-20T20:21:21.424Z,9.50
2022-10-20T20:24:24.518Z,9.48
2022-10-20T20:27:27.407Z,9.33
2022-10-20T20:30:30.489Z,9.38
2022-10-20T20:33:34.029Z,9.35
2022-10-20T20:36:37.078Z,9.29
2022-10-20T20:39:39.776Z,9.14
2022-10-20T20:42:42.706Z,9.12
2022-10-20T20:45:45.351Z,9.03
2022-10-20T20:48:48.369Z,9.01
2022-10-20T20:51:51.016Z,9.02
2022-10-20T20:54:54.051Z,9.02
2022-10-20T20:57:56.549Z,9.00
2022-10-20T21:01:02.457Z,8.90
2022-10-20T21:04:10.191Z,8.83
2022-10-20T21:07:13.151Z,8.75
2022-10-20T21:10:15.833Z,8.68
2022-10-20T21:13:18.654Z,8.61
2022-10-20T21:16:35.673Z,8.71
2022-10-20T21:19:38.476Z,8.64
2022-10-20T21:22:41.036Z,8.49
2022-10-20T21:25:46.217Z,8.42
2022-10-20T21:28:49.516Z,8.38
2022-10-20T21:31:52.584Z,8.33
2022-10-20T21:34:57.911Z,8.33
2022-10-20T21:38:00.881Z,8.33
2022-10-20T21:41:15.503Z,8.31
2022-10-20T21:44:18.427Z,8.30
2022-10-20T21:47:20.994Z,8.25
2022-10-20T21:50:23.976Z,8.26
2022-10-20T21:53:26.425Z,8.25
2022-10-20T21:56:29.773Z,8.20
2022-10-20T21:59:32.336Z,8.33
2022-10-20T22:02:35.651Z,8.29
2022-10-20T22:05:38.620Z,8.27
2022-10-20T22:08:43.980Z,8.29
2022-10-20T22:11:50.905Z,8.14
2022-10-20T22:14:53.438Z,7.94
2022-10-20T22:17:56.410Z,7.80
2022-10-20T22:21:09.817Z,7.70
2022-10-20T22:24:16.329Z,7.64
2022-10-20T22:27:31.340Z,7.71
2022-10-20T22:30:41.691Z,7.71
2022-10-20T22:33:44.293Z,7.72
2022-10-20T22:36:47.284Z,7.60
2022-10-20T22:39:50.043Z,7.74
2022-10-20T22:42:52.905Z,7.67
2022-10-20T22:45:55.382Z,7.68
2022-10-20T22:52:01.690Z,7.60
2022-10-20T22:55:06.923Z,7.50
2022-10-20T22:58:09.459Z,7.45
2022-10-20T23:01:18.752Z,7.37
2022-10-20T23:04:21.423Z,7.49
2022-10-20T23:07:24.527Z,7.54
2022-10-20T23:10:27.454Z,7.70
2022-10-20T23:13:30.304Z,7.80
2022-10-20T23:16:32.816Z,7.73
2022-10-20T23:19:35.687Z,7.61
2022-10-20T23:22:38.212Z,7.47
2022-10-20T23:25:42.309Z,7.25
2022-10-20T23:28:44.899Z,7.10
2022-10-20T23:31:47.724Z,6.97
2022-10-20T23:34:50.196Z,6.89
2022-10-20T23:37:52.980Z,6.85
2022-10-20T23:40:55.761Z,6.86
2022-10-20T23:43:58.630Z,6.87
2022-10-20T23:47:01.183Z,6.82
2022-10-20T23:50:04.655Z,6.84
2022-10-20T23:53:07.228Z,6.79
2022-10-20T23:56:10.043Z,6.76
2022-10-20T23:59:12.583Z,6.74
